Terminal Aerodrome Forecast
Issued by NWS

Home | Current Version | Previous Version | Text Only | Print | Product List | Glossary On
Versions: 1 2 3 4 5 6 7 8 9 10 11 12 13 14
000
FTPA31 PHFO 260520
TAFMDY
TAF
PMDY 260520Z 2606/2706 33011KT P6SM VCSH SCT015 BKN035
     FM261200 02010KT P6SM VCSH SCT015 BKN035
      AMD LTD TO VIS AND WIND=

USA.gov is the U.S. government's official web portal to all federal, state and local government web resources and services.